Karditsa, Greece
Current Conditions -  °F | °C
As of 12:50 AM on Friday 24 Oct 2014 (Local Time) from LGLR Reporting Station
Scattered Clouds Scattered Clouds  
Wind Chill: 46°   Ceiling: Unl
Heat Index: 46°   Visibility: 6mi
Dew Point: 39°   Wind: 0mph
Humidity: 76%   Direction: NA
Pressure: 29.8"   Gusts: NA
Location:  39.37°N, 21.92°E
Report Text: LGLR 232150Z 00000KT 9999 FEW035 SCT080 08/04 Q1009 BLU
Loading
Personal Weather Stations






























Interactive Weather Map
Tropical Storm Tracking
New forecast layout! Learn more

10-Day Weather Forecast

Advertisements
Track Severe Weather on mobile